createdAt,value
2023-08-17T00:01:12.372Z,102090.47
2023-08-17T00:03:38.908Z,102076.59
2023-08-17T00:06:05.432Z,102084.59
2023-08-17T00:08:32.343Z,102086.16
2023-08-17T00:10:58.781Z,102086.84
2023-08-17T00:13:25.217Z,102082.50
2023-08-17T00:15:51.694Z,102079.84
2023-08-17T00:18:18.153Z,102071.66
2023-08-17T00:20:45.379Z,102072.03
2023-08-17T00:23:11.939Z,102080.28
2023-08-17T00:25:38.491Z,102072.75
2023-08-17T00:28:05.371Z,102081.00
2023-08-17T00:30:31.826Z,102085.28
2023-08-17T00:32:58.322Z,102081.84
2023-08-17T00:35:24.790Z,102094.25
2023-08-17T00:37:51.257Z,102095.41
2023-08-17T00:40:17.804Z,102093.84
2023-08-17T00:42:44.317Z,102086.19
2023-08-17T00:45:10.989Z,102079.25
2023-08-17T00:47:37.649Z,102081.03
2023-08-17T00:50:04.825Z,102078.34
2023-08-17T00:52:33.188Z,102080.25
2023-08-17T00:55:01.892Z,102079.72
2023-08-17T00:57:28.793Z,102083.09
2023-08-17T01:00:04.709Z,102082.81
2023-08-17T01:02:32.678Z,102083.16
2023-08-17T01:04:59.648Z,102073.56
2023-08-17T01:07:26.313Z,102088.63
2023-08-17T01:09:53.232Z,102083.09
2023-08-17T01:13:02.973Z,102078.63
2023-08-17T01:15:36.326Z,102067.63
2023-08-17T01:18:23.934Z,102064.13
2023-08-17T01:20:52.900Z,102064.81
2023-08-17T01:23:19.594Z,102075.06
2023-08-17T01:25:46.417Z,102084.09
2023-08-17T01:28:12.900Z,102081.06
2023-08-17T01:30:50.841Z,102079.31
2023-08-17T01:33:25.285Z,102074.78
2023-08-17T01:36:00.571Z,102077.56
2023-08-17T01:38:30.276Z,102072.56
2023-08-17T01:40:58.131Z,102066.97
2023-08-17T01:43:24.834Z,102064.97
2023-08-17T01:45:51.610Z,102044.41
2023-08-17T01:48:18.082Z,102042.94
2023-08-17T01:50:44.528Z,102035.28
2023-08-17T01:53:11.126Z,102033.63
2023-08-17T01:55:37.678Z,102032.53
2023-08-17T01:58:04.379Z,102027.69
2023-08-17T02:00:30.874Z,102024.38
2023-08-17T02:02:57.407Z,102024.25
2023-08-17T02:05:23.864Z,102035.25
2023-08-17T02:07:50.292Z,102033.63
2023-08-17T02:10:16.787Z,102034.72
2023-08-17T02:12:43.244Z,102024.38
2023-08-17T02:15:10.186Z,102043.94
2023-08-17T02:17:36.600Z,102040.31
2023-08-17T02:20:04.936Z,102039.75
2023-08-17T02:22:31.378Z,102031.25
2023-08-17T02:24:58.031Z,102034.56
2023-08-17T02:27:24.616Z,102038.41
2023-08-17T02:29:51.401Z,102039.31
2023-08-17T02:32:17.865Z,102039.97
2023-08-17T02:34:44.381Z,102055.22
2023-08-17T02:37:10.976Z,102047.84
2023-08-17T02:39:37.428Z,102048.66
2023-08-17T02:42:04.000Z,102047.13
2023-08-17T02:44:30.425Z,102049.38
2023-08-17T02:46:56.883Z,102049.13
2023-08-17T02:49:23.493Z,102038.63
2023-08-17T02:51:49.924Z,102049.66
2023-08-17T02:54:16.359Z,102039.25
2023-08-17T02:56:42.782Z,102047.19
2023-08-17T02:59:09.255Z,102052.13
2023-08-17T03:01:36.513Z,102050.72
2023-08-17T03:04:03.144Z,102058.13
2023-08-17T03:06:29.567Z,102055.88
2023-08-17T03:08:56.045Z,102060.38
2023-08-17T03:11:22.519Z,102056.81
2023-08-17T03:13:49.638Z,102061.38
2023-08-17T03:16:16.799Z,102059.22
2023-08-17T03:18:45.842Z,102055.16
2023-08-17T03:21:12.584Z,102065.28
2023-08-17T03:23:39.096Z,102061.44
2023-08-17T03:26:05.739Z,102055.06
2023-08-17T03:28:32.215Z,102053.72
2023-08-17T03:30:58.799Z,102052.13
2023-08-17T03:33:25.296Z,102041.81
2023-08-17T03:35:51.863Z,102046.06
2023-08-17T03:38:18.298Z,102047.47
2023-08-17T03:40:44.866Z,102038.56
2023-08-17T03:43:11.794Z,102032.28
2023-08-17T03:45:38.222Z,102033.25
2023-08-17T03:48:05.298Z,102038.34
2023-08-17T03:50:31.749Z,102043.38
2023-08-17T03:52:58.193Z,102042.28
2023-08-17T03:55:24.643Z,102036.75
2023-08-17T03:57:51.085Z,102034.50
2023-08-17T04:00:17.653Z,102034.44
2023-08-17T04:02:44.389Z,102037.06
2023-08-17T04:05:10.920Z,102038.91
2023-08-17T04:07:38.068Z,102039.00
2023-08-17T04:10:06.831Z,102049.13
2023-08-17T04:12:33.261Z,102046.13
2023-08-17T04:15:00.126Z,102053.75
2023-08-17T04:17:27.215Z,102046.59
2023-08-17T04:19:54.167Z,102046.94
2023-08-17T04:22:20.696Z,102048.53
2023-08-17T04:24:47.138Z,102047.78
2023-08-17T04:27:15.253Z,102053.78
2023-08-17T04:29:41.693Z,102064.56
2023-08-17T04:32:08.131Z,102059.41
2023-08-17T04:34:34.728Z,102066.66
2023-08-17T04:37:01.219Z,102065.00
2023-08-17T04:39:27.672Z,102068.19
2023-08-17T04:41:54.137Z,102068.19
2023-08-17T04:44:20.548Z,102066.00
2023-08-17T04:46:46.979Z,102071.22
2023-08-17T04:49:13.448Z,102066.97
2023-08-17T04:51:39.867Z,102065.88
2023-08-17T04:54:06.314Z,102069.72
2023-08-17T04:56:32.786Z,102057.97
2023-08-17T04:58:59.212Z,102057.41
2023-08-17T05:01:25.734Z,102065.19
2023-08-17T05:03:52.855Z,102058.88
2023-08-17T05:06:19.439Z,102068.03
2023-08-17T05:08:45.931Z,102068.88
2023-08-17T05:11:12.499Z,102065.09
2023-08-17T05:13:39.447Z,102075.97
2023-08-17T05:16:06.361Z,102068.97
2023-08-17T05:18:32.896Z,102071.19
2023-08-17T05:20:59.313Z,102073.63
2023-08-17T05:23:25.787Z,102069.50
2023-08-17T05:25:52.274Z,102074.72
2023-08-17T05:28:18.717Z,102077.41
2023-08-17T05:30:45.205Z,102080.41
2023-08-17T05:33:11.771Z,102075.00
2023-08-17T05:35:38.237Z,102064.91
2023-08-17T05:38:04.898Z,102070.72
2023-08-17T05:40:31.954Z,102067.41
2023-08-17T05:42:58.405Z,102070.13
2023-08-17T05:45:24.907Z,102071.53
2023-08-17T05:47:53.083Z,102081.34
2023-08-17T05:50:19.650Z,102077.75
2023-08-17T05:52:46.162Z,102082.22
2023-08-17T05:55:12.649Z,102085.50
2023-08-17T05:57:39.123Z,102083.31
2023-08-17T06:00:06.276Z,102098.06
2023-08-17T06:02:32.775Z,102087.16
2023-08-17T06:04:59.227Z,102087.16
2023-08-17T06:07:26.024Z,102093.50
2023-08-17T06:09:52.649Z,102089.66
2023-08-17T06:12:20.077Z,102082.78
2023-08-17T06:14:46.609Z,102090.31
2023-08-17T06:17:13.038Z,102091.75
2023-08-17T06:19:40.935Z,102087.06
2023-08-17T06:22:07.380Z,102081.56
2023-08-17T06:24:34.286Z,102091.47
2023-08-17T06:27:00.752Z,102097.78
2023-08-17T06:29:27.219Z,102102.69
2023-08-17T06:31:53.770Z,102097.75
2023-08-17T06:34:20.222Z,102109.31
2023-08-17T06:36:58.003Z,102108.75
2023-08-17T06:39:24.446Z,102106.53
2023-08-17T06:41:51.064Z,102123.59
2023-08-17T06:44:17.514Z,102114.25
2023-08-17T06:46:44.042Z,102114.22
2023-08-17T06:49:12.003Z,102111.44
2023-08-17T06:51:38.471Z,102103.13
2023-08-17T06:54:05.943Z,102108.72
2023-08-17T06:56:32.462Z,102117.78
2023-08-17T06:58:58.938Z,102119.19
2023-08-17T07:01:25.395Z,102127.38
2023-08-17T07:03:51.840Z,102118.63
2023-08-17T07:06:18.933Z,102119.16
2023-08-17T07:08:45.362Z,102128.22
2023-08-17T07:11:11.976Z,102122.19
2023-08-17T07:13:38.409Z,102123.56
2023-08-17T07:16:05.167Z,102123.56
2023-08-17T07:18:31.701Z,102129.34
2023-08-17T07:20:59.078Z,102130.41
2023-08-17T07:23:26.004Z,102135.09
2023-08-17T07:25:52.438Z,102140.03
2023-08-17T07:28:18.887Z,102135.13
2023-08-17T07:30:45.409Z,102141.97
2023-08-17T07:33:12.228Z,102143.34
2023-08-17T07:35:38.675Z,102139.75
2023-08-17T07:38:09.355Z,102137.03
2023-08-17T07:40:36.806Z,102126.88
2023-08-17T07:43:03.497Z,102133.19
2023-08-17T07:45:29.942Z,102131.25
2023-08-17T07:47:56.461Z,102123.56
2023-08-17T07:50:23.096Z,102126.59
2023-08-17T07:52:49.678Z,102118.91
2023-08-17T07:55:16.186Z,102128.25
2023-08-17T07:57:42.626Z,102127.97
2023-08-17T08:00:09.379Z,102132.34
2023-08-17T08:02:36.008Z,102125.78
2023-08-17T08:05:03.692Z,102120.28
2023-08-17T08:07:30.282Z,102125.78
2023-08-17T08:09:56.816Z,102118.38
2023-08-17T08:12:23.306Z,102108.72
2023-08-17T08:14:50.319Z,102118.06
2023-08-17T08:17:16.720Z,102120.25
2023-08-17T08:19:43.289Z,102108.47
2023-08-17T08:22:09.707Z,102117.72
2023-08-17T08:24:38.391Z,102121.28
2023-08-17T08:27:06.006Z,102121.59
2023-08-17T08:29:32.541Z,102119.69
2023-08-17T08:32:00.804Z,102113.09
2023-08-17T08:34:27.415Z,102118.59
2023-08-17T08:36:53.870Z,102121.09
2023-08-17T08:39:20.314Z,102114.47
2023-08-17T08:41:46.830Z,102124.84
2023-08-17T08:44:13.416Z,102111.97
2023-08-17T08:46:44.231Z,102112.50
2023-08-17T08:49:12.579Z,102101.88
2023-08-17T08:51:45.773Z,102099.97
2023-08-17T08:54:15.419Z,102098.81
2023-08-17T08:56:47.861Z,102096.13
2023-08-17T08:59:15.384Z,102101.28
2023-08-17T09:01:42.859Z,102114.97
2023-08-17T09:04:09.646Z,102098.56
2023-08-17T09:06:37.153Z,102104.06
2023-08-17T09:09:03.713Z,102110.94
2023-08-17T09:11:31.167Z,102100.78
2023-08-17T09:13:57.762Z,102092.50
2023-08-17T09:16:25.891Z,102103.81
2023-08-17T09:18:54.246Z,102104.06
2023-08-17T09:21:22.957Z,102116.94
2023-08-17T09:24:00.539Z,102099.91
2023-08-17T09:26:32.511Z,102104.88
2023-08-17T09:29:00.122Z,102106.03
2023-08-17T09:31:26.776Z,102105.44
2023-08-17T09:33:54.162Z,102107.63
2023-08-17T09:36:24.099Z,102106.56
2023-08-17T09:38:52.516Z,102096.91
2023-08-17T09:41:20.157Z,102093.34
2023-08-17T09:43:47.491Z,102091.72
2023-08-17T09:46:14.197Z,102099.97
2023-08-17T09:48:40.784Z,102099.66
2023-08-17T09:51:07.824Z,102100.50
2023-08-17T09:53:38.158Z,102100.78
2023-08-17T09:56:06.212Z,102102.38
2023-08-17T09:58:32.669Z,102098.03
2023-08-17T10:01:03.561Z,102095.78
2023-08-17T10:03:33.513Z,102093.38
2023-08-17T10:06:08.034Z,102100.78
2023-08-17T10:08:41.189Z,102097.19
2023-08-17T10:11:08.414Z,102088.41
2023-08-17T10:13:40.860Z,102090.63
2023-08-17T10:16:20.934Z,102086.78
2023-08-17T10:19:02.908Z,102092.56
2023-08-17T10:21:32.904Z,102094.16
2023-08-17T10:23:59.439Z,102092.28
2023-08-17T10:26:26.812Z,102093.09
2023-08-17T10:28:55.354Z,102090.91
2023-08-17T10:31:22.369Z,102101.88
2023-08-17T10:33:49.564Z,102102.16
2023-08-17T10:36:16.736Z,102103.19
2023-08-17T10:38:43.199Z,102099.94
2023-08-17T10:41:11.026Z,102104.34
2023-08-17T10:44:00.892Z,102099.16
2023-08-17T10:46:38.577Z,102094.16
2023-08-17T10:49:07.085Z,102087.34
2023-08-17T10:51:34.743Z,102086.75
2023-08-17T10:54:05.271Z,102094.44
2023-08-17T10:56:32.091Z,102088.41
2023-08-17T10:59:02.850Z,102088.31
2023-08-17T11:01:37.074Z,102091.38
2023-08-17T11:04:19.300Z,102087.91
2023-08-17T11:06:46.432Z,102088.63
2023-08-17T11:09:13.386Z,102078.53
2023-08-17T11:11:40.091Z,102080.16
2023-08-17T11:14:06.639Z,102083.47
2023-08-17T11:16:33.172Z,102081.81
2023-08-17T11:19:01.513Z,102080.16
2023-08-17T11:21:28.243Z,102070.56
2023-08-17T11:23:56.940Z,102082.63
2023-08-17T11:26:23.677Z,102090.06
2023-08-17T11:28:50.868Z,102096.56
2023-08-17T11:31:17.512Z,102091.66
2023-08-17T11:33:44.573Z,102093.59
2023-08-17T11:36:11.437Z,102087.00
2023-08-17T11:38:43.012Z,102077.31
2023-08-17T11:41:10.429Z,102092.53
2023-08-17T11:43:38.025Z,102089.03
2023-08-17T11:46:06.056Z,102086.22
2023-08-17T11:51:02.328Z,102080.13
2023-08-17T11:53:35.026Z,102079.31
2023-08-17T11:56:04.074Z,102078.34
2023-08-17T11:58:46.637Z,102086.75
2023-08-17T12:01:14.426Z,102091.56
2023-08-17T12:03:42.618Z,102092.81
2023-08-17T12:06:10.604Z,102089.16
2023-08-17T12:08:37.236Z,102093.53
2023-08-17T12:11:04.444Z,102083.59
2023-08-17T12:13:35.260Z,102085.34
2023-08-17T12:16:02.476Z,102084.44
2023-08-17T12:18:29.044Z,102083.06
2023-08-17T12:20:56.052Z,102079.63
2023-08-17T12:23:22.738Z,102073.59
2023-08-17T12:25:54.931Z,102087.03
2023-08-17T12:28:21.564Z,102086.34
2023-08-17T12:30:47.988Z,102092.19
2023-08-17T12:33:14.475Z,102089.09
2023-08-17T12:35:41.038Z,102088.59
2023-08-17T12:38:07.500Z,102078.75
2023-08-17T12:40:33.985Z,102087.53
2023-08-17T12:43:00.433Z,102073.91
2023-08-17T12:45:28.438Z,102073.13
2023-08-17T12:47:55.343Z,102071.09
2023-08-17T12:50:21.988Z,102072.44
2023-08-17T12:52:48.460Z,102073.28
2023-08-17T12:55:15.069Z,102072.00
2023-08-17T12:57:41.548Z,102065.59
2023-08-17T13:00:08.677Z,102064.88
2023-08-17T13:02:35.200Z,102057.03
2023-08-17T13:05:01.792Z,102065.03
2023-08-17T13:07:28.225Z,102065.44
2023-08-17T13:09:54.674Z,102060.00
2023-08-17T13:12:21.096Z,102058.47
2023-08-17T13:14:47.526Z,102059.75
2023-08-17T13:17:15.588Z,102067.31
2023-08-17T13:19:42.214Z,102069.16
2023-08-17T13:22:09.892Z,102071.34
2023-08-17T13:24:36.334Z,102072.53
2023-08-17T13:27:03.309Z,102074.97
2023-08-17T13:29:29.773Z,102068.34
2023-08-17T13:31:56.210Z,102072.75
2023-08-17T13:34:22.813Z,102067.41
2023-08-17T13:36:49.274Z,102065.22
2023-08-17T13:39:16.066Z,102066.69
2023-08-17T13:41:43.755Z,102064.75
2023-08-17T13:44:10.329Z,102066.66
2023-08-17T13:46:37.151Z,102068.50
2023-08-17T13:49:05.308Z,102068.00
2023-08-17T13:51:31.730Z,102055.47
2023-08-17T13:53:58.195Z,102058.78
2023-08-17T13:56:25.105Z,102062.06
2023-08-17T13:58:52.710Z,102063.16
2023-08-17T14:01:19.653Z,102054.91
2023-08-17T14:03:46.352Z,102054.69
2023-08-17T14:06:12.944Z,102049.69
2023-08-17T14:08:39.593Z,102045.59
2023-08-17T14:11:07.546Z,102045.03
2023-08-17T14:13:35.182Z,102046.94
2023-08-17T14:16:01.763Z,102040.69
2023-08-17T14:18:28.259Z,102035.72
2023-08-17T14:20:54.846Z,102029.72
2023-08-17T14:23:21.333Z,102020.66
2023-08-17T14:25:47.774Z,102025.34
2023-08-17T14:28:14.307Z,102014.34
2023-08-17T14:30:40.880Z,102003.91
2023-08-17T14:33:07.502Z,102004.44
2023-08-17T14:35:34.029Z,102012.13
2023-08-17T14:38:02.052Z,102017.88
2023-08-17T14:40:28.661Z,102016.78
2023-08-17T14:42:55.193Z,102015.94
2023-08-17T14:45:21.746Z,102028.81
2023-08-17T14:47:48.191Z,102017.19
2023-08-17T14:50:15.106Z,102016.19
2023-08-17T14:52:42.215Z,102012.06
2023-08-17T14:55:10.040Z,102015.06
2023-08-17T14:57:36.659Z,102001.63
2023-08-17T15:00:03.605Z,102003.84
2023-08-17T15:02:30.350Z,102010.47
2023-08-17T15:04:56.914Z,102006.34
2023-08-17T15:07:23.421Z,102003.06
2023-08-17T15:09:50.046Z,102003.88
2023-08-17T15:12:16.659Z,102002.78
2023-08-17T15:14:43.135Z,102002.56
2023-08-17T15:17:13.374Z,102001.09
2023-08-17T15:19:41.227Z,102012.59
2023-08-17T15:22:08.205Z,102005.69
2023-08-17T15:24:34.893Z,101996.16
2023-08-17T15:27:01.351Z,101987.16
2023-08-17T15:29:27.784Z,101998.38
2023-08-17T15:31:54.284Z,101998.34
2023-08-17T15:34:20.779Z,101999.72
2023-08-17T15:36:47.361Z,102005.00
2023-08-17T15:39:13.861Z,101996.72
2023-08-17T15:41:40.338Z,102002.25
2023-08-17T15:44:06.944Z,102012.69
2023-08-17T15:46:33.407Z,102007.75
2023-08-17T15:48:59.898Z,102003.63
2023-08-17T15:51:28.646Z,102003.06
2023-08-17T15:53:55.800Z,102004.16
2023-08-17T15:56:22.273Z,102012.66
2023-08-17T15:58:48.804Z,102015.91
2023-08-17T16:01:15.866Z,102012.72
2023-08-17T16:03:42.803Z,102008.31
2023-08-17T16:06:09.424Z,102008.84
2023-08-17T16:08:48.810Z,102008.00
2023-08-17T16:11:15.930Z,102008.81
2023-08-17T16:13:45.723Z,102009.09
2023-08-17T16:16:12.485Z,102011.03
2023-08-17T16:18:39.054Z,102014.84
2023-08-17T16:21:07.489Z,102006.38
2023-08-17T16:23:40.204Z,102011.03
2023-08-17T16:26:06.621Z,102016.28
2023-08-17T16:28:33.048Z,102016.25
2023-08-17T16:31:04.416Z,102019.47
2023-08-17T16:33:31.106Z,102027.41
2023-08-17T16:35:57.607Z,102030.72
2023-08-17T16:38:25.343Z,102027.16
2023-08-17T16:40:51.813Z,102027.09
2023-08-17T16:43:21.006Z,102027.09
2023-08-17T16:45:47.611Z,102025.72
2023-08-17T16:48:14.145Z,102042.22
2023-08-17T16:50:40.658Z,102043.41
2023-08-17T16:53:07.072Z,102040.13
2023-08-17T16:55:35.264Z,102033.28
2023-08-17T16:58:02.508Z,102031.91
2023-08-17T17:00:30.858Z,102028.34
2023-08-17T17:02:57.289Z,102033.53
2023-08-17T17:05:23.848Z,102031.91
2023-08-17T17:07:50.299Z,102026.69
2023-08-17T17:10:19.577Z,102032.19
2023-08-17T17:12:46.064Z,102035.47
2023-08-17T17:15:12.564Z,102030.00
2023-08-17T17:17:39.091Z,102034.91
2023-08-17T17:20:06.203Z,102041.78
2023-08-17T17:22:32.709Z,102037.31
2023-08-17T17:24:59.220Z,102044.25
2023-08-17T17:27:25.904Z,102050.28
2023-08-17T17:29:52.584Z,102039.25
2023-08-17T17:32:19.012Z,102049.91
2023-08-17T17:34:45.447Z,102049.41
2023-08-17T17:37:11.864Z,102057.31
2023-08-17T17:39:38.312Z,102058.78
2023-08-17T17:42:04.938Z,102053.31
2023-08-17T17:44:31.423Z,102059.91
2023-08-17T17:46:57.897Z,102051.03
2023-08-17T17:49:24.394Z,102044.41
2023-08-17T17:51:51.106Z,102057.59
2023-08-17T17:54:17.655Z,102048.31
2023-08-17T17:56:44.952Z,102047.25
2023-08-17T17:59:12.325Z,102053.84
2023-08-17T18:01:39.480Z,102046.72
2023-08-17T18:04:06.096Z,102050.00
2023-08-17T18:06:34.813Z,102055.44
2023-08-17T18:09:01.489Z,102057.69
2023-08-17T18:11:28.056Z,102059.31
2023-08-17T18:13:54.516Z,102057.84
2023-08-17T18:16:20.994Z,102061.38
2023-08-17T18:18:47.533Z,102058.50
2023-08-17T18:21:13.957Z,102053.66
2023-08-17T18:23:40.454Z,102055.31
2023-08-17T18:26:06.924Z,102049.06
2023-08-17T18:28:33.397Z,102056.97
2023-08-17T18:31:00.046Z,102048.44
2023-08-17T18:33:26.542Z,102048.16
2023-08-17T18:35:54.081Z,102047.00
2023-08-17T18:38:22.657Z,102045.09
2023-08-17T18:40:49.938Z,102045.28
2023-08-17T18:43:17.439Z,102039.84
2023-08-17T18:45:43.898Z,102059.44
2023-08-17T18:48:10.350Z,102053.97
2023-08-17T18:50:36.835Z,102058.28
2023-08-17T18:53:04.410Z,102057.06
2023-08-17T18:55:32.498Z,102054.66
2023-08-17T18:57:59.100Z,102039.78
2023-08-17T19:00:25.544Z,102045.00
2023-08-17T19:02:52.124Z,102027.34
2023-08-17T19:05:18.875Z,102020.72
2023-08-17T19:07:45.332Z,102023.44
2023-08-17T19:10:11.806Z,102014.81
2023-08-17T19:12:38.272Z,102008.97
2023-08-17T19:15:05.098Z,102012.50
2023-08-17T19:17:32.485Z,102012.00
2023-08-17T19:19:59.449Z,102014.72
2023-08-17T19:22:25.883Z,102024.56
2023-08-17T19:24:52.331Z,102027.44
2023-08-17T19:27:19.060Z,102016.88
2023-08-17T19:29:45.547Z,102015.88
2023-08-17T19:32:11.973Z,102027.97
2023-08-17T19:34:38.415Z,102029.78
2023-08-17T19:37:04.982Z,102029.19
2023-08-17T19:39:31.464Z,102022.97
2023-08-17T19:41:57.960Z,102014.56
2023-08-17T19:44:24.578Z,102016.56
2023-08-17T19:46:50.996Z,102016.97
2023-08-17T19:49:17.459Z,102013.81
2023-08-17T19:51:44.583Z,102010.66
2023-08-17T19:54:11.672Z,102008.34
2023-08-17T19:56:39.484Z,102002.00
2023-08-17T19:59:06.236Z,102010.00
2023-08-17T20:01:37.817Z,102013.59
2023-08-17T20:04:05.268Z,102010.63
2023-08-17T20:06:32.190Z,102001.44
2023-08-17T20:08:58.698Z,102003.88
2023-08-17T20:11:25.849Z,101999.22
2023-08-17T20:13:52.285Z,101993.34
2023-08-17T20:16:18.949Z,101985.59
2023-08-17T20:18:46.841Z,101985.66
2023-08-17T20:21:13.534Z,101972.06
2023-08-17T20:23:41.351Z,101982.72
2023-08-17T20:26:07.819Z,101979.19
2023-08-17T20:28:34.238Z,101984.31
2023-08-17T20:31:00.886Z,101977.13
2023-08-17T20:33:28.044Z,101975.66
2023-08-17T20:35:55.658Z,101973.47
2023-08-17T20:38:22.998Z,101963.88
2023-08-17T20:40:51.740Z,101969.03
2023-08-17T20:43:18.766Z,101959.78
2023-08-17T20:45:45.356Z,101959.19
2023-08-17T20:48:12.716Z,101971.84
2023-08-17T20:50:40.214Z,101968.78
2023-08-17T20:53:07.227Z,101971.31
2023-08-17T20:55:35.964Z,101968.00
2023-08-17T20:58:02.912Z,101979.94
2023-08-17T21:00:30.165Z,101982.28
2023-08-17T21:02:57.079Z,101983.38
2023-08-17T21:05:24.002Z,101985.50
2023-08-17T21:07:50.493Z,101985.50
2023-08-17T21:10:17.743Z,101980.47
2023-08-17T21:12:44.183Z,101988.69
2023-08-17T21:15:10.947Z,101986.81
2023-08-17T21:17:37.408Z,101987.28
2023-08-17T21:20:05.288Z,101988.16
2023-08-17T21:22:32.284Z,101983.50
2023-08-17T21:24:58.788Z,101981.81
2023-08-17T21:27:25.302Z,101979.72
2023-08-17T21:29:52.268Z,101981.31
2023-08-17T21:32:19.680Z,101984.03
2023-08-17T21:34:49.195Z,101965.41
2023-08-17T21:37:26.473Z,101969.47
2023-08-17T21:39:56.163Z,101965.38
2023-08-17T21:42:23.056Z,101962.31
2023-08-17T21:44:50.793Z,101953.59
2023-08-17T21:47:17.519Z,101950.56
2023-08-17T21:49:47.645Z,101969.56
2023-08-17T21:52:14.317Z,101968.44
2023-08-17T21:54:40.748Z,101962.47
2023-08-17T21:57:07.238Z,101960.28
2023-08-17T21:59:33.718Z,101952.84
2023-08-17T22:02:00.365Z,101961.63
2023-08-17T22:04:26.784Z,101959.97
2023-08-17T22:06:53.319Z,101942.97
2023-08-17T22:09:20.862Z,101948.94
2023-08-17T22:11:47.306Z,101951.72
2023-08-17T22:14:13.760Z,101938.28
2023-08-17T22:16:40.273Z,101941.28
2023-08-17T22:19:07.096Z,101947.91
2023-08-17T22:21:33.553Z,101953.41
2023-08-17T22:24:01.124Z,101956.97
2023-08-17T22:26:27.571Z,101952.31
2023-08-17T22:28:54.039Z,101951.75
2023-08-17T22:31:20.666Z,101953.72
2023-08-17T22:33:47.162Z,101962.22
2023-08-17T22:36:13.620Z,101971.78
2023-08-17T22:38:40.940Z,101965.53
2023-08-17T22:41:07.403Z,101964.38
2023-08-17T22:43:33.884Z,101969.09
2023-08-17T22:46:03.652Z,101962.75
2023-08-17T22:48:30.224Z,101961.94
2023-08-17T22:50:56.726Z,101963.59
2023-08-17T22:53:23.168Z,101959.75
2023-08-17T22:55:49.624Z,101958.34
2023-08-17T22:58:16.122Z,101959.78
2023-08-17T23:00:42.573Z,101946.88
2023-08-17T23:03:09.142Z,101956.19
2023-08-17T23:05:35.744Z,101960.28
2023-08-17T23:08:02.325Z,101956.72
2023-08-17T23:10:31.499Z,101953.97
2023-08-17T23:12:57.936Z,101951.50
2023-08-17T23:15:24.497Z,101953.75
2023-08-17T23:17:51.045Z,101950.97
2023-08-17T23:20:17.618Z,101964.69
2023-08-17T23:22:44.062Z,101958.34
2023-08-17T23:25:10.567Z,101958.97
2023-08-17T23:27:37.250Z,101958.94
2023-08-17T23:30:04.397Z,101955.34
2023-08-17T23:32:30.966Z,101964.44
2023-08-17T23:34:57.468Z,101955.91
2023-08-17T23:37:24.040Z,101948.50
2023-08-17T23:39:50.873Z,101954.81
2023-08-17T23:42:17.367Z,101951.81
2023-08-17T23:44:43.830Z,101955.63
2023-08-17T23:47:10.739Z,101945.78
2023-08-17T23:49:38.459Z,101949.88
2023-08-17T23:52:07.047Z,101949.88
2023-08-17T23:54:33.554Z,101958.94
2023-08-17T23:57:00.009Z,101947.97
2023-08-17T23:59:26.471Z,101944.94
